Time;durP1;ratioP1;P1;durP2;ratioP2;P2;SDS_P1;SDS_P2;PMS_P1;PMS_P2;Temp;Humidity;BMP_temperature;BMP_pressure;BME280_temperature;BME280_humidity;BME280_pressure;Samples;Min_cycle;Max_cycle;Signal;HPM_P1;HPM_P2
2022/03/13 00:02:16;;;;;;;22.63;12.38;;;;;;;10.24;80.08;101218.53;5074168;28;20029;-83
2022/03/13 00:04:49;;;;;;;27.20;13.77;;;;;;;10.16;80.25;101213.59;5054915;28;20021;-83
2022/03/13 00:07:21;;;;;;;28.35;14.27;;;;;;;10.16;81.60;101223.69;5058325;28;20606;-83
2022/03/13 00:09:51;;;;;;;28.40;14.38;;;;;;;10.18;81.32;101211.63;5048990;28;20565;-83
2022/03/13 00:12:29;;;;;;;27.50;13.43;;;;;;;10.23;80.74;101212.19;5051706;28;20041;-83
2022/03/13 00:14:56;;;;;;;22.67;12.68;;;;;;;10.18;81.50;101216.22;5054250;28;20041;-83
2022/03/13 00:17:27;;;;;;;24.27;13.20;;;;;;;10.08;81.23;101189.56;5039158;28;20416;-83
2022/03/13 00:19:59;;;;;;;25.60;13.10;;;;;;;10.19;81.17;101194.22;5038856;28;20045;-84
2022/03/13 00:22:24;;;;;;;30.63;12.88;;;;;;;10.18;82.40;101205.28;5045401;28;20048;-84
2022/03/13 00:24:50;;;;;;;23.58;11.07;;;;;;;10.16;82.13;101199.06;5038411;28;20021;-84
2022/03/13 00:27:15;;;;;;;26.25;13.00;;;;;;;10.16;82.81;101204.53;5033315;28;20061;-84
2022/03/13 00:29:41;;;;;;;25.42;11.65;;;;;;;10.16;82.81;101196.31;5073094;28;20128;-83
2022/03/13 00:32:08;;;;;;;20.85;10.93;;;;;;;10.19;82.43;101196.97;5057656;28;20086;-83
2022/03/13 00:34:34;;;;;;;23.30;11.93;;;;;;;10.19;82.76;101177.81;5041748;28;20052;-83
2022/03/13 00:36:59;;;;;;;22.20;11.05;;;;;;;10.22;82.49;101176.72;5055090;28;20041;-83
2022/03/13 00:39:25;;;;;;;22.77;11.77;;;;;;;10.17;83.18;101171.59;5029983;28;20031;-84
2022/03/13 00:41:51;;;;;;;22.33;12.27;;;;;;;10.13;83.05;101170.03;5056189;28;20034;-84
2022/03/13 00:44:16;;;;;;;23.90;11.82;;;;;;;10.14;83.30;101173.69;5036520;28;20048;-84
2022/03/13 00:46:42;;;;;;;25.52;11.65;;;;;;;10.02;82.85;101151.69;5040629;28;20472;-84
2022/03/13 00:49:08;;;;;;;21.23;10.93;;;;;;;10.06;83.23;101155.94;5043751;28;20049;-84
2022/03/13 00:51:33;;;;;;;23.98;11.52;;;;;;;10.07;83.81;101167.78;5040365;28;20037;-84
2022/03/13 00:53:59;;;;;;;22.10;10.85;;;;;;;10.03;84.01;101166.22;5057539;28;20385;-84
2022/03/13 00:56:24;;;;;;;22.45;11.70;;;;;;;9.97;84.40;101175.75;5040416;28;20039;-85
2022/03/13 00:58:50;;;;;;;22.00;11.68;;;;;;;10.09;82.99;101163.06;5056408;28;20032;-84
2022/03/13 01:01:16;;;;;;;19.40;11.75;;;;;;;9.99;83.60;101154.63;5039734;28;20028;-84
2022/03/13 01:03:42;;;;;;;22.70;12.23;;;;;;;10.07;83.46;101157.69;5032185;28;20093;-84
2022/03/13 01:06:08;;;;;;;33.40;12.20;;;;;;;10.02;84.01;101153.53;5055181;28;20049;-84
2022/03/13 01:08:35;;;;;;;22.17;11.45;;;;;;;10.01;83.78;101149.91;5051343;28;20080;-83
2022/03/13 01:11:03;;;;;;;21.58;11.93;;;;;;;9.97;83.79;101161.19;5056876;28;20033;-84
2022/03/13 01:13:29;;;;;;;27.35;13.30;;;;;;;9.98;83.55;101144.66;5057618;28;20029;-84
2022/03/13 01:16:11;;;;;;;20.88;11.95;;;;;;;10.02;83.56;101156.25;5057322;28;20029;-84
2022/03/13 01:18:44;;;;;;;27.17;12.48;;;;;;;9.99;83.61;101154.63;5054415;28;20430;-84
2022/03/13 01:21:11;;;;;;;24.02;11.85;;;;;;;9.96;83.72;101148.53;5051589;28;20044;-84
2022/03/13 01:23:38;;;;;;;23.98;11.55;;;;;;;9.87;84.45;101141.81;5057027;28;20404;-84
2022/03/13 01:26:22;;;;;;;22.50;12.27;;;;;;;9.88;84.69;101143.59;5033437;28;20029;-84
2022/03/13 01:28:51;;;;;;;22.23;12.15;;;;;;;9.80;85.27;101135.94;5048504;28;20049;-84
2022/03/13 01:31:22;;;;;;;25.70;11.80;;;;;;;9.78;85.24;101137.03;5052589;28;20056;-84
2022/03/13 01:33:47;;;;;;;25.38;12.05;;;;;;;9.76;85.78;101137.13;5053527;28;20029;-84
2022/03/13 01:36:13;;;;;;;25.65;12.18;;;;;;;9.71;86.20;101132.00;5056210;28;20051;-84
2022/03/13 01:38:39;;;;;;;22.70;12.30;;;;;;;9.55;87.09;101120.41;5056083;28;20033;-84
2022/03/13 01:41:05;;;;;;;21.67;11.50;;;;;;;9.46;86.96;101094.59;5052430;28;20134;-83
2022/03/13 01:43:31;;;;;;;23.23;12.38;;;;;;;9.52;87.45;101113.28;5036532;28;20029;-83
2022/03/13 01:45:58;;;;;;;27.30;12.43;;;;;;;9.67;86.23;101114.03;5037399;28;20101;-83
2022/03/13 01:48:25;;;;;;;27.75;13.70;;;;;;;9.67;85.46;101113.19;5055894;28;20024;-82
2022/03/13 01:50:50;;;;;;;23.33;12.98;;;;;;;9.63;85.68;101104.31;5037253;28;20048;-83
2022/03/13 01:53:18;;;;;;;24.25;12.75;;;;;;;9.64;85.37;101097.88;5055233;28;20040;-83
2022/03/13 01:55:44;;;;;;;23.52;13.00;;;;;;;9.62;85.15;101098.97;5054813;28;20497;-82
2022/03/13 01:58:09;;;;;;;24.85;13.10;;;;;;;9.63;85.24;101095.25;5052318;28;20056;-82
2022/03/13 02:00:35;;;;;;;23.80;13.52;;;;;;;9.59;85.45;101094.56;5033047;28;20252;-84
2022/03/13 02:03:00;;;;;;;34.65;15.18;;;;;;;9.55;86.14;101093.06;5040685;28;20081;-84
2022/03/13 02:05:32;;;;;;;30.42;16.45;;;;;;;9.60;85.62;101101.81;5073270;28;20562;-84
2022/03/13 02:07:59;;;;;;;30.50;15.77;;;;;;;9.55;85.95;101101.25;5047890;28;20511;-84
2022/03/13 02:10:28;;;;;;;45.30;21.95;;;;;;;9.46;86.99;101082.78;5056435;28;20115;-84
2022/03/13 02:12:55;;;;;;;47.55;19.48;;;;;;;9.46;86.45;101080.94;5050302;28;20080;-83
2022/03/13 02:15:21;;;;;;;36.55;18.30;;;;;;;9.52;86.32;101088.69;5056464;28;20033;-84
2022/03/13 02:17:46;;;;;;;34.88;17.65;;;;;;;9.45;86.69;101072.84;5040136;28;20075;-83
2022/03/13 02:20:15;;;;;;;29.90;16.55;;;;;;;9.46;86.98;101082.78;5049855;28;20036;-84
2022/03/13 02:22:45;;;;;;;32.72;16.52;;;;;;;9.46;86.97;101071.84;5061320;28;20035;-83
2022/03/13 02:25:19;;;;;;;25.17;13.60;;;;;;;9.43;87.26;101062.03;5059776;28;20051;-83
2022/03/13 02:27:44;;;;;;;22.77;13.65;;;;;;;9.42;88.42;101073.06;5044774;28;20036;-82
2022/03/13 02:30:11;;;;;;;26.70;13.80;;;;;;;9.24;89.69;101076.09;5043050;28;20033;-82
2022/03/13 02:32:36;;;;;;;30.98;14.95;;;;;;;9.22;88.71;101069.88;5071966;28;20043;-83
2022/03/13 02:35:02;;;;;;;29.85;17.25;;;;;;;9.22;89.54;101077.19;5042585;28;20089;-83
2022/03/13 02:37:34;;;;;;;29.67;15.52;;;;;;;9.24;88.94;101084.28;5045591;28;20021;-83
2022/03/13 02:40:00;;;;;;;32.28;15.00;;;;;;;9.25;87.42;101077.84;5074208;28;20025;-82
2022/03/13 02:42:25;;;;;;;26.90;14.45;;;;;;;9.18;88.29;101076.50;5060814;28;20036;-81
2022/03/13 02:44:51;;;;;;;27.10;14.93;;;;;;;9.18;87.39;101079.25;5043475;28;20017;-81
2022/03/13 02:47:16;;;;;;;27.40;13.95;;;;;;;9.07;87.91;101070.91;5058249;28;20060;-82
2022/03/13 02:49:42;;;;;;;30.40;15.23;;;;;;;9.07;87.38;101054.53;5077128;28;20032;-83
2022/03/13 02:52:08;;;;;;;28.67;15.23;;;;;;;9.07;86.67;101055.44;5061184;28;20087;-82
2022/03/13 02:54:34;;;;;;;28.15;14.35;;;;;;;8.95;87.86;101056.25;5055960;28;20029;-83
2022/03/13 02:57:01;;;;;;;30.42;16.17;;;;;;;9.05;86.91;101060.13;5056362;28;20029;-83
2022/03/13 02:59:27;;;;;;;25.92;14.50;;;;;;;8.95;88.16;101059.00;5051926;28;20052;-84
2022/03/13 03:01:53;;;;;;;29.05;15.80;;;;;;;8.99;87.84;101055.97;5046057;28;20021;-83
2022/03/13 03:04:22;;;;;;;32.95;14.75;;;;;;;8.92;88.38;101067.41;5059525;28;20030;-80
2022/03/13 03:06:55;;;;;;;31.75;14.68;;;;;;;8.94;87.02;101057.28;5051879;28;20020;-82
2022/03/13 03:09:20;;;;;;;;;;;;;;;9.00;85.86;101052.25;5060159;28;20053;-82
2022/03/13 03:11:47;;;;;;;30.50;14.73;;;;;;;9.00;86.03;101051.34;5071106;28;19970;-82
2022/03/13 03:14:13;;;;;;;29.02;14.98;;;;;;;8.99;85.04;101063.28;5057970;28;20035;-82
2022/03/13 03:16:38;;;;;;;32.67;15.27;;;;;;;8.93;84.69;101048.19;5058670;28;20434;-82
2022/03/13 03:19:04;;;;;;;30.65;13.77;;;;;;;8.93;83.92;101058.25;5060386;28;20116;-82
2022/03/13 03:21:30;;;;;;;27.30;14.77;;;;;;;9.01;81.84;101062.19;5043915;28;20025;-82
2022/03/13 03:23:55;;;;;;;26.63;15.13;;;;;;;8.98;82.38;101061.53;5075628;28;20044;-82
2022/03/13 03:26:21;;;;;;;28.13;15.00;;;;;;;8.98;81.99;101062.38;5041315;28;20039;-83
2022/03/13 03:28:46;;;;;;;31.83;14.27;;;;;;;8.91;81.66;101050.16;5060900;28;20056;-83
2022/03/13 03:31:12;;;;;;;23.45;13.00;;;;;;;8.88;81.16;101053.09;5053003;28;20037;-83
2022/03/13 03:33:37;;;;;;;30.17;14.15;;;;;;;8.93;81.88;101064.56;5037588;28;20104;-83
2022/03/13 03:36:03;;;;;;;30.55;13.90;;;;;;;8.92;81.47;101065.56;5044965;28;20036;-83
2022/03/13 03:38:29;;;;;;;24.85;13.15;;;;;;;8.99;80.88;101071.47;5058429;28;20506;-83
2022/03/13 03:40:54;;;;;;;25.23;12.80;;;;;;;8.95;81.25;101073.56;5042856;28;20108;-82
2022/03/13 03:43:20;;;;;;;36.00;14.15;;;;;;;8.87;81.69;101070.47;5055733;28;20057;-83
2022/03/13 03:45:45;;;;;;;26.17;13.45;;;;;;;8.79;82.07;101073.72;5047226;28;20029;-82
2022/03/13 03:48:11;;;;;;;31.90;14.27;;;;;;;8.83;82.90;101068.91;5044030;28;20025;-83
2022/03/13 03:50:37;;;;;;;26.23;14.30;;;;;;;8.76;82.82;101059.41;5061392;28;20112;-82
2022/03/13 03:53:02;;;;;;;32.97;15.13;;;;;;;8.75;83.15;101063.97;5039702;28;20033;-83
2022/03/13 03:55:28;;;;;;;30.98;14.73;;;;;;;8.67;83.58;101051.84;5056552;28;20021;-83
2022/03/13 03:57:55;;;;;;;34.47;15.38;;;;;;;8.70;83.01;101071.59;5061652;28;20036;-82
2022/03/13 04:00:24;;;;;;;26.17;15.02;;;;;;;8.75;82.91;101060.38;5051345;28;20029;-83
2022/03/13 04:02:50;;;;;;;26.02;14.52;;;;;;;8.65;82.61;101052.81;5052113;28;20033;-83
2022/03/13 04:05:15;;;;;;;29.10;15.73;;;;;;;8.68;83.13;101062.66;5056592;28;20043;-83
2022/03/13 04:07:41;;;;;;;27.00;14.32;;;;;;;8.65;83.69;101061.00;5035145;28;20148;-83
2022/03/13 04:10:08;;;;;;;27.60;15.20;;;;;;;8.54;84.03;101051.78;5059847;28;20044;-83
2022/03/13 04:12:34;;;;;;;42.38;15.20;;;;;;;8.50;83.69;101056.59;5039042;28;20121;-82
2022/03/13 04:15:01;;;;;;;28.85;15.57;;;;;;;8.49;83.59;101054.81;5053766;28;20067;-82
2022/03/13 04:17:27;;;;;;;36.22;17.92;;;;;;;8.50;84.25;101062.03;5059252;28;20054;-82
2022/03/13 04:19:53;;;;;;;35.20;17.40;;;;;;;8.46;83.20;101057.75;5075697;28;20029;-83
2022/03/13 04:22:19;;;;;;;32.67;16.38;;;;;;;8.37;83.78;101047.44;5061225;28;20005;-82
2022/03/13 04:24:44;;;;;;;32.30;15.30;;;;;;;8.41;84.18;101052.59;5058109;28;20024;-83
2022/03/13 04:27:10;;;;;;;30.27;16.48;;;;;;;8.38;84.67;101049.16;5039415;28;20025;-82
2022/03/13 04:29:35;;;;;;;25.92;14.65;;;;;;;8.34;83.95;101045.78;5056181;28;20037;-82
2022/03/13 04:32:05;;;;;;;29.02;15.95;;;;;;;8.36;83.86;101037.50;5059080;28;20025;-82
2022/03/13 04:34:31;;;;;;;33.88;15.95;;;;;;;8.37;84.20;101045.56;5067818;28;20088;-83
2022/03/13 04:37:00;;;;;;;29.77;15.32;;;;;;;8.18;84.77;101015.03;5058591;28;20036;-83
2022/03/13 04:39:27;;;;;;;34.22;16.95;;;;;;;8.24;86.03;101029.16;5042982;28;20174;-83
2022/03/13 04:41:53;;;;;;;28.50;14.70;;;;;;;8.26;84.67;101037.22;5058236;28;20048;-83
2022/03/13 04:44:20;;;;;;;31.38;15.90;;;;;;;8.22;85.16;101036.56;5058704;28;20041;-83
2022/03/13 04:46:45;;;;;;;29.80;15.43;;;;;;;8.21;85.33;101042.13;5057317;28;20027;-83
2022/03/13 04:49:12;;;;;;;29.77;14.82;;;;;;;8.20;86.65;101043.97;5059226;28;20112;-82
2022/03/13 04:51:40;;;;;;;30.50;16.55;;;;;;;8.18;86.47;101048.66;5065920;28;20024;-82
2022/03/13 04:54:07;;;;;;;30.08;14.77;;;;;;;8.12;86.26;101046.34;5066988;28;20037;-82
2022/03/13 04:56:33;;;;;;;32.33;14.70;;;;;;;8.09;85.51;101050.13;5048734;28;20037;-82
2022/03/13 04:58:59;;;;;;;36.15;17.25;;;;;;;8.06;85.08;101049.47;5059417;28;20032;-83
2022/03/13 05:01:24;;;;;;;33.80;14.43;;;;;;;8.12;83.72;101051.78;5065573;28;20092;-83
2022/03/13 05:03:50;;;;;;;31.40;15.02;;;;;;;8.14;82.70;101046.25;5050397;28;20032;-83
2022/03/13 05:06:15;;;;;;;30.08;14.48;;;;;;;8.10;84.43;101048.31;5070660;28;20480;-82
2022/03/13 05:08:41;;;;;;;29.83;13.50;;;;;;;8.09;82.11;101036.50;5070978;28;20148;-83
2022/03/13 05:11:07;;;;;;;35.65;14.55;;;;;;;8.13;81.16;101047.22;5054437;28;20032;-83
2022/03/13 05:13:34;;;;;;;34.28;16.15;;;;;;;8.09;82.48;101047.41;5070869;28;20249;-83
2022/03/13 05:15:59;;;;;;;45.35;14.93;;;;;;;8.09;81.37;101044.69;5066861;28;20101;-83
2022/03/13 05:18:25;;;;;;;27.58;14.25;;;;;;;8.06;81.21;101047.59;5068471;28;20080;-84
2022/03/13 05:20:50;;;;;;;31.33;13.85;;;;;;;8.08;81.42;101059.31;5071445;28;20017;-82
2022/03/13 05:23:16;;;;;;;36.30;14.25;;;;;;;8.09;80.66;101054.72;5072881;28;20025;-83
2022/03/13 05:25:42;;;;;;;27.58;14.75;;;;;;;8.05;81.83;101051.31;5069408;28;20112;-83
2022/03/13 05:28:09;;;;;;;38.05;14.25;;;;;;;7.85;82.43;101038.09;5052698;28;20091;-84
2022/03/13 05:30:39;;;;;;;28.92;15.02;;;;;;;7.93;85.16;101053.97;5055962;28;20025;-83
2022/03/13 05:33:06;;;;;;;30.38;13.88;;;;;;;7.98;82.63;101062.72;5071429;28;20044;-82
2022/03/13 05:35:31;;;;;;;28.40;13.48;;;;;;;7.94;83.71;101063.91;5067038;28;20033;-82
2022/03/13 05:37:57;;;;;;;33.63;14.13;;;;;;;7.96;83.58;101073.72;5068287;28;20029;-82
2022/03/13 05:40:23;;;;;;;36.60;14.35;;;;;;;7.94;83.81;101069.38;5072438;28;20028;-82
2022/03/13 05:42:55;;;;;;;31.48;15.95;;;;;;;7.89;86.98;101069.66;5085760;28;20030;-82
2022/03/13 05:45:22;;;;;;;31.80;15.75;;;;;;;7.82;86.79;101063.72;5065526;28;20092;-82
2022/03/13 05:47:56;;;;;;;28.42;14.90;;;;;;;7.81;87.92;101061.09;5077760;28;20044;-82
2022/03/13 05:50:24;;;;;;;32.17;15.98;;;;;;;7.72;94.14;101058.00;5068388;28;20051;-82
2022/03/13 05:52:50;;;;;;;36.15;16.45;;;;;;;7.57;93.30;101049.91;5085986;28;20668;-82
2022/03/13 05:55:18;;;;;;;30.40;15.52;;;;;;;7.50;93.68;101057.59;5054926;28;20036;-82
2022/03/13 05:57:44;;;;;;;39.22;17.67;;;;;;;7.43;97.76;101058.94;5084270;28;20064;-81
2022/03/13 06:00:13;;;;;;;32.20;15.38;;;;;;;7.45;99.35;101059.75;5072949;28;20044;-81
2022/03/13 06:02:42;;;;;;;36.38;15.27;;;;;;;7.38;97.24;101063.78;5036072;28;20033;-82
2022/03/13 06:05:10;;;;;;;31.35;16.67;;;;;;;7.40;98.45;101060.03;5072432;28;20047;-82
2022/03/13 06:07:36;;;;;;;32.63;16.35;;;;;;;7.41;100.00;101053.63;5058742;28;20013;-82
2022/03/13 06:10:03;;;;;;;30.33;16.00;;;;;;;7.47;98.98;101055.06;5054800;28;20025;-81
2022/03/13 06:12:32;;;;;;;46.40;20.05;;;;;;;7.48;98.94;101057.69;5073579;28;20060;-82
2022/03/13 06:14:59;;;;;;;49.35;20.25;;;;;;;7.48;98.96;101057.69;5075789;28;20036;-81
2022/03/13 06:17:25;;;;;;;38.83;19.00;;;;;;;7.34;100.00;101053.09;5062119;28;20032;-82
2022/03/13 06:19:52;;;;;;;41.78;18.83;;;;;;;7.43;99.83;101057.09;5076071;28;20012;-82
2022/03/13 06:22:18;;;;;;;40.55;19.60;;;;;;;7.28;100.00;101048.06;5074162;28;20044;-82
2022/03/13 06:24:44;;;;;;;34.97;16.90;;;;;;;7.29;99.62;101057.09;5065190;28;20476;-82
2022/03/13 06:27:10;;;;;;;35.40;15.98;;;;;;;7.17;99.46;101032.38;5073164;28;20064;-82
2022/03/13 06:29:37;;;;;;;31.17;15.10;;;;;;;7.22;98.85;101040.25;5059074;28;20040;-81
2022/03/13 06:32:02;;;;;;;30.33;14.23;;;;;;;7.27;96.13;101064.47;5060212;28;20020;-82
2022/03/13 06:34:28;;;;;;;28.67;14.18;;;;;;;7.22;97.43;101059.31;5059252;28;20052;-83
2022/03/13 06:36:53;;;;;;;35.13;15.38;;;;;;;7.30;98.01;101062.44;5075815;28;20001;-82
2022/03/13 06:39:19;;;;;;;29.88;15.82;;;;;;;7.32;97.60;101060.50;5071080;28;20032;-82
2022/03/13 06:41:44;;;;;;;32.17;14.90;;;;;;;7.22;99.44;101058.44;5073064;28;20036;-81
2022/03/13 06:44:10;;;;;;;30.20;14.93;;;;;;;7.27;98.62;101048.16;5063676;28;20032;-81
2022/03/13 06:46:35;;;;;;;38.72;16.92;;;;;;;7.32;98.06;101062.34;5075967;28;20041;-81
2022/03/13 06:49:03;;;;;;;32.88;15.85;;;;;;;7.31;98.93;101061.47;5071829;28;20089;-81
2022/03/13 06:51:28;;;;;;;34.75;16.15;;;;;;;7.24;97.40;101059.22;5073529;28;20083;-82
2022/03/13 06:53:54;;;;;;;34.17;15.60;;;;;;;7.27;98.08;101059.91;5073710;28;20021;-80
2022/03/13 06:56:19;;;;;;;32.80;15.32;;;;;;;7.31;95.65;101061.47;5074904;28;20063;-81
2022/03/13 06:58:45;;;;;;;32.88;14.52;;;;;;;7.38;95.73;101061.06;5074020;28;20096;-82
2022/03/13 07:01:10;;;;;;;30.73;15.27;;;;;;;7.38;96.21;101070.16;5067028;28;20029;-83
2022/03/13 07:03:37;;;;;;;40.90;13.85;;;;;;;7.35;92.80;101063.03;5059501;28;20120;-82
2022/03/13 07:06:04;;;;;;;29.27;14.10;;;;;;;7.39;93.98;101052.81;5053669;28;20032;-82
2022/03/13 07:08:33;;;;;;;24.50;13.50;;;;;;;7.46;91.70;101064.19;5056804;28;20045;-83
2022/03/13 07:11:01;;;;;;;24.13;12.88;;;;;;;7.48;90.00;101068.59;5056381;28;20094;-84
2022/03/13 07:13:32;;;;;;;29.58;14.27;;;;;;;7.58;90.36;101071.59;5040360;28;20041;-82
2022/03/13 07:15:59;;;;;;;26.05;12.30;;;;;;;7.61;87.28;101059.63;5044323;28;20029;-83
2022/03/13 07:18:26;;;;;;;21.10;12.93;;;;;;;7.55;89.45;101060.91;5038590;28;20022;-82
2022/03/13 07:20:52;;;;;;;34.85;13.45;;;;;;;7.59;91.45;101054.31;5041122;28;20036;-82
2022/03/13 07:23:17;;;;;;;26.65;13.15;;;;;;;7.70;88.94;101053.59;5044099;28;20124;-82
2022/03/13 07:25:43;;;;;;;25.35;12.65;;;;;;;7.82;86.81;101066.44;5060555;28;20055;-81
2022/03/13 07:28:08;;;;;;;26.52;12.88;;;;;;;7.82;86.92;101058.28;5043466;28;20040;-81
2022/03/13 07:30:33;;;;;;;21.13;12.23;;;;;;;7.95;85.31;101062.91;5059432;28;20392;-82
2022/03/13 07:32:59;;;;;;;30.23;12.45;;;;;;;8.03;83.99;101052.38;5059139;28;20056;-82
2022/03/13 07:35:24;;;;;;;30.75;13.60;;;;;;;8.13;84.13;101064.44;5061250;28;20047;-81
2022/03/13 07:37:50;;;;;;;29.80;12.93;;;;;;;8.26;83.33;101062.69;5061524;28;20463;-80
2022/03/13 07:40:15;;;;;;;32.53;12.35;;;;;;;8.31;81.80;101056.88;5039211;28;20057;-81
2022/03/13 07:42:41;;;;;;;24.98;12.80;;;;;;;8.35;80.54;101061.19;5075039;28;20044;-80
2022/03/13 07:45:07;;;;;;;27.88;13.38;;;;;;;8.27;83.85;101052.63;5073655;28;20051;-80
2022/03/13 07:47:32;;;;;;;40.83;15.43;;;;;;;8.31;81.18;101047.84;5057391;28;20029;-79
2022/03/13 07:49:58;;;;;;;28.45;13.68;;;;;;;8.25;80.35;101043.69;5058427;28;20052;-79
2022/03/13 07:52:24;;;;;;;27.27;13.45;;;;;;;8.28;81.48;101046.22;5073038;28;20505;-80
2022/03/13 07:54:49;;;;;;;24.58;12.50;;;;;;;8.29;80.42;101037.91;5058829;28;20084;-80
2022/03/13 07:57:15;;;;;;;29.50;13.15;;;;;;;8.29;81.24;101059.72;5058481;28;20098;-80
2022/03/13 07:59:40;;;;;;;31.75;14.13;;;;;;;8.21;82.24;101044.84;5074581;28;20056;-80
2022/03/13 08:02:06;;;;;;;24.30;12.70;;;;;;;8.34;80.83;101053.09;5059988;28;20043;-80
2022/03/13 08:04:31;;;;;;;27.85;13.70;;;;;;;8.27;81.01;101048.03;5055884;28;20043;-80
2022/03/13 08:06:57;;;;;;;27.90;12.90;;;;;;;8.34;82.34;101058.56;5039714;28;20032;-80
2022/03/13 08:09:22;;;;;;;28.77;13.77;;;;;;;8.40;81.16;101056.28;5055115;28;20056;-80
2022/03/13 08:11:48;;;;;;;28.35;14.20;;;;;;;8.38;81.76;101051.91;5039204;28;20040;-80
2022/03/13 08:14:13;;;;;;;24.38;12.98;;;;;;;8.50;81.27;101053.00;5057664;28;20044;-79
2022/03/13 08:16:41;;;;;;;27.83;13.43;;;;;;;8.43;81.37;101047.06;5057324;28;20033;-80
2022/03/13 08:19:09;;;;;;;28.08;13.30;;;;;;;8.46;80.66;101052.28;5054196;28;20065;-81
2022/03/13 08:21:34;;;;;;;34.67;13.18;;;;;;;8.49;80.57;101051.22;5053221;28;20040;-80
2022/03/13 08:23:59;;;;;;;29.60;13.63;;;;;;;8.49;79.73;101046.63;5049698;28;20033;-79
2022/03/13 08:26:27;;;;;;;25.40;13.00;;;;;;;8.62;80.48;101049.41;5055679;28;20032;-80
2022/03/13 08:28:52;;;;;;;28.42;13.85;;;;;;;8.68;80.63;101049.00;5047837;28;20413;-80
2022/03/13 08:31:18;;;;;;;29.10;12.70;;;;;;;8.69;79.16;101044.41;5053785;28;20084;-80
2022/03/13 08:33:45;;;;;;;27.25;13.68;;;;;;;8.85;80.12;101049.69;5059102;28;20037;-82
2022/03/13 08:36:12;;;;;;;26.67;13.57;;;;;;;8.96;77.03;101044.38;5042863;28;20059;-82
2022/03/13 08:38:37;;;;;;;25.58;14.18;;;;;;;9.06;77.37;101050.94;5061053;28;20041;-83
2022/03/13 08:41:03;;;;;;;26.48;13.63;;;;;;;9.10;77.69;101049.75;5047128;28;20465;-83
2022/03/13 08:43:28;;;;;;;31.77;13.55;;;;;;;9.19;76.50;101038.16;5055845;28;20024;-83
2022/03/13 08:45:54;;;;;;;30.25;12.73;;;;;;;9.23;74.55;101054.34;5059122;28;20021;-83
2022/03/13 08:48:19;;;;;;;27.38;12.80;;;;;;;9.36;72.26;101052.50;5076651;28;20063;-83
2022/03/13 08:50:44;;;;;;;24.42;12.55;;;;;;;9.36;71.67;101022.44;5075978;28;20045;-84
2022/03/13 08:53:10;;;;;;;27.13;13.88;;;;;;;9.63;72.07;101037.84;5068556;28;20049;-83
2022/03/13 08:55:35;;;;;;;26.23;12.77;;;;;;;10.35;70.26;101048.97;5049742;28;20013;-83
2022/03/13 08:58:01;;;;;;;25.75;13.38;;;;;;;10.64;67.54;101044.03;5036158;28;20025;-83
2022/03/13 09:00:27;;;;;;;30.08;13.13;;;;;;;10.81;66.46;101050.94;5034142;28;20033;-83
2022/03/13 09:02:53;;;;;;;24.80;11.80;;;;;;;11.39;63.80;101033.66;5038624;28;20119;-83
2022/03/13 09:05:21;;;;;;;24.63;13.20;;;;;;;11.89;59.29;101027.84;5042591;28;20021;-83
2022/03/13 09:07:47;;;;;;;25.02;12.60;;;;;;;11.97;58.83;101014.38;5058963;28;20041;-83
2022/03/13 09:10:13;;;;;;;27.10;12.82;;;;;;;11.95;60.70;101009.03;5043759;28;20033;-84
2022/03/13 09:12:41;;;;;;;20.45;11.77;;;;;;;12.39;57.95;101028.25;5059837;28;20041;-83
2022/03/13 09:15:07;;;;;;;25.92;13.02;;;;;;;12.38;58.76;101029.28;5069643;28;20041;-82
2022/03/13 09:17:34;;;;;;;22.98;11.60;;;;;;;12.97;55.70;101040.75;5056808;28;20032;-82
2022/03/13 09:20:00;;;;;;;25.48;13.50;;;;;;;12.62;56.62;101033.69;5057929;28;20025;-82
2022/03/13 09:22:30;;;;;;;29.08;13.55;;;;;;;13.11;57.71;101043.19;5059347;28;20491;-82
2022/03/13 09:25:00;;;;;;;28.05;12.65;;;;;;;13.45;54.47;101022.91;5060550;28;20036;-83
2022/03/13 09:27:26;;;;;;;23.08;11.60;;;;;;;13.52;54.31;101038.72;5072495;28;20045;-82
2022/03/13 09:29:54;;;;;;;28.58;13.30;;;;;;;13.52;53.51;101032.34;5045853;28;20036;-82
2022/03/13 09:32:22;;;;;;;25.17;12.38;;;;;;;13.47;54.61;101029.13;5061800;28;20037;-82
2022/03/13 09:34:48;;;;;;;19.70;12.07;;;;;;;13.77;54.60;101034.66;5076364;28;20358;-83
2022/03/13 09:37:14;;;;;;;20.60;12.45;;;;;;;13.94;52.78;101029.50;5065225;28;20044;-83
2022/03/13 09:39:39;;;;;;;27.90;13.68;;;;;;;14.04;52.31;101027.66;5062696;28;20021;-84
2022/03/13 09:42:05;;;;;;;23.77;12.77;;;;;;;13.82;52.01;101020.44;5046346;28;20045;-83
2022/03/13 09:44:30;;;;;;;20.52;11.80;;;;;;;13.86;51.65;101023.81;5062187;28;20496;-82
2022/03/13 09:46:55;;;;;;;22.90;12.80;;;;;;;13.76;52.73;101024.66;5039631;28;20025;-83
2022/03/13 09:49:23;;;;;;;29.05;14.07;;;;;;;14.09;52.99;101025.34;5048156;28;20036;-85
2022/03/13 09:51:49;;;;;;;21.67;13.02;;;;;;;14.26;52.69;101014.66;5062059;28;20089;-84
2022/03/13 09:54:14;;;;;;;22.58;13.15;;;;;;;13.95;52.33;101012.84;5077936;28;20179;-82
2022/03/13 09:56:40;;;;;;;35.85;13.15;;;;;;;14.04;53.65;101011.13;5057586;28;20029;-84
2022/03/13 09:59:06;;;;;;;26.70;13.75;;;;;;;14.13;53.49;101035.09;5044149;28;22061;-83
2022/03/13 10:01:32;;;;;;;27.90;13.55;;;;;;;14.28;52.79;101020.88;5045416;28;20159;-84
2022/03/13 10:03:58;;;;;;;24.38;13.25;;;;;;;14.36;52.60;101020.19;5062467;28;20029;-84
2022/03/13 10:06:25;;;;;;;22.10;13.80;;;;;;;14.62;53.24;101015.91;5059543;28;20060;-84
2022/03/13 10:08:50;;;;;;;25.90;13.75;;;;;;;15.14;52.68;101015.59;5040659;28;20037;-84
2022/03/13 10:11:20;;;;;;;25.33;13.40;;;;;;;15.32;51.77;101003.81;5060763;28;20124;-83
2022/03/13 10:13:46;;;;;;;23.85;13.55;;;;;;;15.17;52.52;101012.53;5036544;28;20119;-86
2022/03/13 10:16:20;;;;;;;22.95;12.73;;;;;;;15.67;52.63;101014.16;5054329;28;20139;-82
2022/03/13 10:18:46;;;;;;;25.20;14.02;;;;;;;15.34;53.86;101016.44;5065363;28;20563;-83
2022/03/13 10:21:16;;;;;;;26.50;13.43;;;;;;;15.66;52.03;101006.91;5037195;28;20053;-83
2022/03/13 10:23:43;;;;;;;22.45;13.60;;;;;;;15.66;52.08;101006.00;5058729;28;20057;-86
2022/03/13 10:26:09;;;;;;;31.00;18.15;;;;;;;15.57;52.78;100999.53;5037768;28;20037;-83
2022/03/13 10:28:40;;;;;;;32.28;20.75;;;;;;;15.65;52.21;100996.00;5056238;28;20503;-83
2022/03/13 10:31:08;;;;;;;22.55;13.57;;;;;;;15.86;52.05;101002.19;5068841;28;20045;-84
2022/03/13 10:33:43;;;;;;;21.98;13.32;;;;;;;15.92;53.47;100997.94;5057517;28;20072;-84
2022/03/13 10:36:21;;;;;;;26.08;15.20;;;;;;;15.94;51.14;101004.22;5053571;28;20119;-83
2022/03/13 10:38:49;;;;;;;21.42;12.95;;;;;;;15.88;52.78;100996.53;5063265;28;20037;-83
2022/03/13 10:41:14;;;;;;;23.10;13.13;;;;;;;15.65;52.55;100988.59;5026498;28;20480;-83
2022/03/13 10:43:52;;;;;;;26.92;13.80;;;;;;;15.85;53.35;100980.25;5059634;28;20048;-83
2022/03/13 10:46:31;;;;;;;21.50;12.35;;;;;;;15.53;53.86;100982.41;5044061;28;20396;-83
2022/03/13 10:48:59;;;;;;;19.73;12.02;;;;;;;15.80;52.80;100978.81;5060846;28;20055;-83
2022/03/13 10:51:45;;;;;;;19.30;11.73;;;;;;;16.13;53.67;100983.88;5043547;28;20109;-84
2022/03/13 10:54:31;;;;;;;20.98;12.55;;;;;;;15.66;54.32;100978.41;5060918;28;20119;-83
2022/03/13 10:57:12;;;;;;;22.42;11.98;;;;;;;15.50;55.14;100985.47;5059733;28;20559;-84
2022/03/13 10:59:41;;;;;;;18.92;11.27;;;;;;;15.98;53.25;100983.53;5060901;28;20084;-84
2022/03/13 11:02:14;;;;;;;22.00;12.60;;;;;;;16.17;53.13;100977.03;5035626;28;20047;-82
2022/03/13 11:04:48;;;;;;;18.02;10.25;;;;;;;15.91;52.41;100958.41;5060363;28;20036;-84
2022/03/13 11:07:14;;;;;;;17.15;11.13;;;;;;;16.22;53.25;100966.38;5054541;28;20158;-84
2022/03/13 11:09:39;;;;;;;18.08;10.05;;;;;;;16.38;51.49;100964.81;5053436;28;20060;-83
2022/03/13 11:12:09;;;;;;;16.60;10.50;;;;;;;16.61;52.63;100967.97;5078192;28;20052;-83
2022/03/13 11:14:35;;;;;;;17.83;10.07;;;;;;;16.30;52.30;100949.88;5062247;28;20052;-83